Time;durP1;ratioP1;P1;durP2;ratioP2;P2;SDS_P1;SDS_P2;PMS_P1;PMS_P2;Temp;Humidity;BMP_temperature;BMP_pressure;BME280_temperature;BME280_humidity;BME280_pressure;Samples;Min_cycle;Max_cycle;Signal;HPM_P1;HPM_P2
2022/05/25 00:01:04;;;;;;;0.70;0.70;;;;;;;2.63;66.84;98908.41;4918417;29;20052;-91
2022/05/25 00:03:34;;;;;;;0.70;0.70;;;;;;;2.53;66.97;98898.94;4921091;29;20134;-90
2022/05/25 00:06:04;;;;;;;0.70;0.70;;;;;;;2.52;67.08;98915.94;4871147;29;20056;-89
2022/05/25 00:08:37;;;;;;;0.60;0.60;;;;;;;2.51;67.21;98911.63;4930389;29;20051;-91
2022/05/25 00:11:05;;;;;;;0.70;0.70;;;;;;;2.48;67.47;98925.34;4918800;29;20154;-90
2022/05/25 00:13:32;;;;;;;0.70;0.70;;;;;;;2.47;67.63;98921.00;4934618;29;20106;-91
2022/05/25 00:16:00;;;;;;;0.60;0.60;;;;;;;2.43;68.01;98924.25;4933911;29;20077;-90
2022/05/25 00:18:27;;;;;;;0.60;0.60;;;;;;;2.31;68.27;98921.31;4936667;29;20147;-90
2022/05/25 00:20:54;;;;;;;0.70;0.70;;;;;;;2.21;68.58;98926.97;4935166;29;20051;-89
2022/05/25 00:23:21;;;;;;;0.65;0.65;;;;;;;2.25;68.85;98938.88;4934045;29;20103;-90
2022/05/25 00:25:49;;;;;;;0.60;0.60;;;;;;;2.09;69.16;98917.84;4935319;29;20519;-90
2022/05/25 00:28:16;;;;;;;0.60;0.60;;;;;;;2.06;69.09;98919.06;4946335;29;20043;-90
2022/05/25 00:30:45;;;;;;;0.60;0.60;;;;;;;2.28;69.31;98943.84;4943435;29;20051;-91
2022/05/25 00:33:13;;;;;;;0.52;0.52;;;;;;;2.35;69.38;98939.34;4935259;29;20134;-91
2022/05/25 00:35:41;;;;;;;0.45;0.45;;;;;;;2.45;69.19;98939.03;4943475;29;20051;-90
2022/05/25 00:38:09;;;;;;;0.65;0.65;;;;;;;2.60;69.03;98942.41;4888703;29;20116;-91
2022/05/25 00:40:41;;;;;;;0.60;0.60;;;;;;;2.78;68.71;98954.41;4919381;29;20111;-92
2022/05/25 00:43:09;;;;;;;0.50;0.50;;;;;;;2.73;68.41;98932.88;4919568;29;20443;-91
2022/05/25 00:45:50;;;;;;;0.60;0.60;;;;;;;2.93;67.94;98949.78;4919846;29;20055;-90
2022/05/25 00:48:23;;;;;;;0.70;0.70;;;;;;;3.04;67.48;98948.44;4919391;29;20511;-92
2022/05/25 00:53:36;;;;;;;0.70;0.70;;;;;;;3.33;66.74;98963.34;4919730;29;20062;-91
2022/05/25 00:56:04;;;;;;;0.68;0.68;;;;;;;3.30;66.26;98950.41;4927055;29;20052;-91
2022/05/25 00:58:33;;;;;;;0.70;0.70;;;;;;;3.41;66.32;98965.00;4926733;29;20104;-91
2022/05/25 01:01:00;;;;;;;0.60;0.60;;;;;;;3.40;66.34;98944.69;4918463;29;20080;-90
2022/05/25 01:03:28;;;;;;;0.70;0.70;;;;;;;3.53;66.21;98971.41;4919074;29;20044;-89
2022/05/25 01:05:58;;;;;;;0.60;0.60;;;;;;;3.57;66.10;98964.66;4902334;29;20052;-90
2022/05/25 01:09:02;;;;;;;0.60;0.60;;;;;;;3.63;66.20;98957.72;4918979;29;20056;-91
2022/05/25 01:11:32;;;;;;;0.60;0.60;;;;;;;3.61;65.79;98962.41;4917852;29;20074;-89
2022/05/25 01:14:22;;;;;;;0.57;0.57;;;;;;;3.58;65.83;98962.81;4919153;29;20056;-90
2022/05/25 01:17:17;;;;;;;0.45;0.45;;;;;;;3.52;66.50;98964.44;4919947;29;20055;-95
2022/05/25 01:32:03;;;;;;;0.60;0.60;;;;;;;3.40;66.67;98985.53;5647124;23;20081;-96
2022/05/25 01:34:36;;;;;;;0.60;0.60;;;;;;;3.48;66.57;98981.88;5261098;23;20063;-95
2022/05/25 01:37:06;;;;;;;0.70;0.70;;;;;;;3.54;66.22;98980.25;4930394;29;20122;-94
2022/05/25 01:39:38;;;;;;;0.60;0.60;;;;;;;3.53;66.45;98976.75;4970383;28;20047;-94
2022/05/25 01:42:32;;;;;;;0.63;0.63;;;;;;;3.58;66.37;98970.81;4951960;29;20099;-90
2022/05/25 01:45:29;;;;;;;0.60;0.60;;;;;;;3.72;65.97;98990.38;4930728;29;20116;-94
2022/05/25 01:48:02;;;;;;;0.60;0.60;;;;;;;3.78;65.80;98989.56;4918392;29;20048;-90
2022/05/25 01:50:49;;;;;;;0.60;0.60;;;;;;;3.80;65.65;98969.66;4934548;29;20055;-91
2022/05/25 01:53:19;;;;;;;0.57;0.57;;;;;;;3.87;65.45;98978.53;4908951;29;20064;-94
2022/05/25 01:55:52;;;;;;;0.60;0.60;;;;;;;4.06;65.05;99010.81;4930482;29;20047;-93
2022/05/25 01:58:37;;;;;;;0.70;0.70;;;;;;;4.00;64.64;98998.25;5012821;23;20340;-96
2022/05/25 02:01:06;;;;;;;0.60;0.60;;;;;;;3.94;64.80;98981.19;4952170;23;20076;-94
2022/05/25 02:10:32;;;;;;;0.50;0.50;;;;;;;3.95;64.83;98976.66;5443437;23;20063;31
2022/05/25 02:17:00;;;;;;;0.60;0.60;;;;;;;3.84;64.82;98994.09;5242614;23;20147;-95
2022/05/25 02:19:43;;;;;;;0.60;0.60;;;;;;;3.91;65.03;99008.28;4943050;29;20115;-94
2022/05/25 02:22:21;;;;;;;0.60;0.60;;;;;;;3.87;64.98;99013.22;4958839;28;20057;-95
2022/05/25 02:25:08;;;;;;;0.70;0.70;;;;;;;3.86;65.23;99008.91;4951367;29;20059;-93
2022/05/25 02:27:40;;;;;;;0.70;0.70;;;;;;;3.66;65.47;98995.47;4938126;29;20051;-91
2022/05/25 02:30:13;;;;;;;0.50;0.50;;;;;;;3.70;65.46;99001.25;4960905;28;20130;-93
2022/05/25 02:32:48;;;;;;;0.60;0.60;;;;;;;3.69;65.53;98994.25;4926634;29;20074;-94
2022/05/25 02:35:18;;;;;;;0.80;0.80;;;;;;;3.65;65.25;98991.19;4936312;29;20451;-94
2022/05/25 02:37:50;;;;;;;0.52;0.52;;;;;;;3.73;65.79;99000.84;4924520;29;20594;-94
2022/05/25 02:40:18;;;;;;;0.65;0.65;;;;;;;3.68;65.27;98987.28;4939988;29;20058;-93
2022/05/25 02:43:03;;;;;;;0.50;0.50;;;;;;;3.69;65.31;98980.91;4912201;29;20035;-96
2022/05/25 03:05:18;;;;;;;0.60;0.60;;;;;;;4.17;64.03;98980.81;5025607;23;21047;-95
2022/05/25 03:10:55;;;;;;;0.57;0.57;;;;;;;4.34;63.91;98999.94;5510180;23;19906;-90
2022/05/25 03:13:27;;;;;;;0.52;0.52;;;;;;;4.26;64.15;98984.13;4953806;29;20035;-94
2022/05/25 03:16:13;;;;;;;0.60;0.60;;;;;;;4.34;63.90;98978.56;4930299;29;20047;-91
2022/05/25 03:18:45;;;;;;;0.60;0.60;;;;;;;4.50;63.44;98999.53;4959339;28;20055;-90
2022/05/25 03:21:15;;;;;;;0.60;0.60;;;;;;;4.68;63.51;99016.81;4966109;28;20143;-92
2022/05/25 03:24:25;;;;;;;0.55;0.55;;;;;;;4.57;62.77;99002.22;5381697;23;20067;-93
2022/05/25 03:26:56;;;;;;;0.60;0.60;;;;;;;4.51;62.69;98995.03;4937973;28;20028;-94
2022/05/25 03:29:42;;;;;;;0.60;0.60;;;;;;;4.67;62.56;98999.97;4901818;29;20037;-96
2022/05/25 03:32:41;;;;;;;0.63;0.63;;;;;;;4.74;61.90;98992.75;4850495;29;20578;-94
2022/05/25 03:35:50;;;;;;;0.60;0.60;;;;;;;4.86;61.49;99017.03;5791909;23;20141;-93
2022/05/25 03:38:22;;;;;;;0.50;0.50;;;;;;;4.92;61.76;99031.41;4943935;29;20060;-93
2022/05/25 03:40:50;;;;;;;0.60;0.60;;;;;;;4.91;61.39;99019.91;4937506;29;20076;-91
2022/05/25 03:43:18;;;;;;;0.50;0.50;;;;;;;4.89;61.34;99005.09;4594788;28;10000338;-91
2022/05/25 03:45:46;;;;;;;0.60;0.60;;;;;;;5.17;61.33;99027.06;4928596;29;20091;-91
2022/05/25 03:48:17;;;;;;;0.50;0.50;;;;;;;5.22;60.86;99016.56;4979984;23;20039;-95
2022/05/25 03:50:55;;;;;;;0.65;0.65;;;;;;;5.30;59.95;99010.16;4919574;29;20051;-95
2022/05/25 03:53:22;;;;;;;0.70;0.70;;;;;;;5.28;59.83;99008.72;4934617;29;20134;-92
2022/05/25 03:55:53;;;;;;;0.70;0.70;;;;;;;5.37;59.83;99012.81;5189529;23;20074;-92
2022/05/25 03:58:25;;;;;;;0.50;0.50;;;;;;;5.45;59.54;98993.03;4990149;23;20051;-93
2022/05/25 04:04:17;;;;;;;0.70;0.70;;;;;;;5.47;57.20;99023.91;5053522;23;20876;-94
2022/05/25 04:06:49;;;;;;;0.60;0.60;;;;;;;5.35;57.17;98988.13;5203975;23;20063;-95
2022/05/25 04:09:29;;;;;;;0.70;0.70;;;;;;;5.67;57.00;99009.59;4914515;29;20105;-92
2022/05/25 04:11:56;;;;;;;0.60;0.60;;;;;;;5.93;56.61;99014.03;4924400;29;20111;-90
2022/05/25 04:14:48;;;;;;;0.60;0.60;;;;;;;6.15;55.98;99022.59;4937441;29;20047;-94
2022/05/25 04:17:15;;;;;;;0.52;0.52;;;;;;;5.87;55.99;99018.38;4918478;29;20044;-92
2022/05/25 04:19:42;;;;;;;0.60;0.60;;;;;;;5.64;56.43;99024.25;4920067;29;20118;-91
2022/05/25 04:22:11;;;;;;;0.60;0.60;;;;;;;5.55;55.59;99026.34;4902451;29;20102;-92
2022/05/25 04:24:39;;;;;;;0.60;0.60;;;;;;;5.53;55.01;99032.94;4935108;29;20070;-91
2022/05/25 04:27:12;;;;;;;0.60;0.60;;;;;;;5.53;55.05;99028.41;4941224;29;20097;-94
2022/05/25 04:29:40;;;;;;;0.50;0.50;;;;;;;5.51;55.35;99041.16;4913331;29;20087;-91
2022/05/25 04:32:07;;;;;;;0.60;0.60;;;;;;;5.29;54.67;99005.00;4917502;29;20502;-92
2022/05/25 04:34:35;;;;;;;0.60;0.60;;;;;;;5.52;54.71;99033.97;4916607;29;20055;-89
2022/05/25 04:39:50;;;;;;;0.60;0.60;;;;;;;5.86;53.85;99025.59;4918651;29;20070;-90
2022/05/25 04:42:18;;;;;;;0.60;0.60;;;;;;;6.23;53.89;99033.06;4917494;29;20140;-90
2022/05/25 04:44:46;;;;;;;0.60;0.60;;;;;;;6.26;51.75;99021.91;4890921;29;20044;-91
2022/05/25 04:47:13;;;;;;;0.60;0.60;;;;;;;6.29;51.63;99029.50;4916689;29;20523;-90
2022/05/25 04:49:44;;;;;;;0.70;0.70;;;;;;;6.45;51.27;99030.84;4917191;29;20048;-90
2022/05/25 04:52:12;;;;;;;0.52;0.52;;;;;;;6.46;50.93;99014.56;4888867;29;20169;-89
2022/05/25 04:54:39;;;;;;;0.50;0.50;;;;;;;6.60;50.12;99031.34;4927226;29;20051;-90
2022/05/25 04:57:22;;;;;;;0.60;0.60;;;;;;;6.61;50.28;99018.75;4915440;29;20168;-90
2022/05/25 04:59:51;;;;;;;0.63;0.63;;;;;;;6.72;50.57;99026.94;4919541;29;20530;-90
2022/05/25 05:02:20;;;;;;;0.70;0.70;;;;;;;7.18;49.80;99035.59;4916333;29;20060;-92
2022/05/25 05:04:48;;;;;;;0.75;0.75;;;;;;;7.72;47.76;99031.31;4919754;29;20063;-90
2022/05/25 05:07:15;;;;;;;0.70;0.70;;;;;;;8.48;46.62;99050.56;4925975;29;20519;-91
2022/05/25 05:09:45;;;;;;;0.70;0.70;;;;;;;8.27;45.13;99026.84;4895669;29;20052;-91
2022/05/25 05:12:14;;;;;;;0.60;0.60;;;;;;;8.35;45.00;99040.78;4914982;29;20091;-87
2022/05/25 05:14:43;;;;;;;0.70;0.70;;;;;;;8.66;44.32;99050.50;4931660;29;20043;-89
2022/05/25 05:17:10;;;;;;;0.70;0.70;;;;;;;9.15;42.85;99033.34;4920759;29;20075;-92
2022/05/25 05:20:22;;;;;;;0.60;0.60;;;;;;;9.37;42.65;99020.94;4839720;29;20057;-90
2022/05/25 05:22:49;;;;;;;0.60;0.60;;;;;;;9.26;43.08;99046.78;4841391;29;20577;-92
2022/05/25 05:25:17;;;;;;;0.55;0.55;;;;;;;9.17;43.13;99047.41;4844499;29;20366;-92
2022/05/25 05:27:46;;;;;;;0.70;0.70;;;;;;;8.86;43.31;99025.13;4824695;29;20069;-93
2022/05/25 05:30:15;;;;;;;0.70;0.70;;;;;;;9.31;43.31;99040.72;4795648;29;20057;-91
2022/05/25 05:32:43;;;;;;;0.65;0.65;;;;;;;9.36;42.20;99040.81;4819239;29;20119;-89
2022/05/25 05:35:10;;;;;;;0.70;0.70;;;;;;;9.59;42.39;99029.19;4821485;29;20054;-89
2022/05/25 05:37:41;;;;;;;0.68;0.68;;;;;;;9.91;40.77;99031.47;4838113;29;20407;-90
2022/05/25 05:40:10;;;;;;;0.60;0.60;;;;;;;10.12;40.83;99027.28;4840486;29;20105;-89
2022/05/25 05:42:39;;;;;;;0.68;0.68;;;;;;;9.87;41.36;99035.69;4810588;29;20072;-89
2022/05/25 05:45:14;;;;;;;0.60;0.60;;;;;;;9.57;42.02;99019.72;4825887;29;20059;-92
2022/05/25 05:47:51;;;;;;;0.60;0.60;;;;;;;9.16;42.39;99014.25;4845591;29;20442;-89
2022/05/25 05:50:21;;;;;;;0.60;0.60;;;;;;;8.60;43.37;99043.34;4835568;29;20535;-91
2022/05/25 05:52:51;;;;;;;0.60;0.60;;;;;;;8.16;44.37;99025.78;4840801;29;20527;-89
2022/05/25 05:55:43;;;;;;;0.50;0.50;;;;;;;7.92;44.62;99032.91;4843428;29;20038;-91
2022/05/25 05:58:11;;;;;;;0.60;0.60;;;;;;;7.63;45.25;99021.09;4943846;29;20051;-90
2022/05/25 06:00:39;;;;;;;0.50;0.50;;;;;;;7.53;45.09;99000.13;4937562;29;20777;-88
2022/05/25 06:03:06;;;;;;;0.60;0.60;;;;;;;7.52;45.30;99026.16;4926084;29;20052;-90
2022/05/25 06:05:34;;;;;;;0.60;0.60;;;;;;;7.49;45.13;99031.97;4928631;29;20847;-89
2022/05/25 06:08:15;;;;;;;0.55;0.55;;;;;;;7.28;45.58;99035.09;4913839;29;20056;-91
2022/05/25 06:10:43;;;;;;;0.68;0.68;;;;;;;7.26;45.70;99029.94;4929293;29;20079;-92
2022/05/25 06:13:11;;;;;;;0.70;0.70;;;;;;;7.30;45.33;99027.63;4948545;29;20047;-89
2022/05/25 06:21:11;;;;;;;0.60;0.60;;;;;;;7.82;44.37;99028.91;4934250;29;20107;-88
2022/05/25 06:23:38;;;;;;;0.60;0.60;;;;;;;7.56;44.48;99021.16;4926450;29;20044;-87
2022/05/25 06:26:05;;;;;;;0.60;0.60;;;;;;;7.43;44.99;99029.38;4929893;29;20055;-89
2022/05/25 06:28:32;;;;;;;0.60;0.60;;;;;;;7.49;45.29;99036.50;4925279;29;20158;-89
2022/05/25 06:30:59;;;;;;;0.60;0.60;;;;;;;7.55;44.80;99016.84;4919268;29;20062;-90
2022/05/25 06:33:27;;;;;;;0.60;0.60;;;;;;;7.55;45.11;99041.00;4919289;29;20052;-92
2022/05/25 06:36:14;;;;;;;0.60;0.60;;;;;;;7.49;45.10;99036.50;4918022;29;20138;-89
2022/05/25 06:38:41;;;;;;;0.60;0.60;;;;;;;7.41;44.89;99042.19;4933947;29;20146;-90
2022/05/25 06:41:08;;;;;;;0.60;0.60;;;;;;;7.23;45.04;99013.47;4927558;29;20056;-87
2022/05/25 06:43:35;;;;;;;0.70;0.70;;;;;;;7.78;44.30;99025.00;4913906;29;20059;-89
2022/05/25 06:46:03;;;;;;;0.70;0.70;;;;;;;8.45;43.18;99033.00;4913207;29;20103;-87
2022/05/25 06:48:57;;;;;;;0.70;0.70;;;;;;;8.79;42.84;99029.81;4924520;29;20063;-89
2022/05/25 06:51:28;;;;;;;0.60;0.60;;;;;;;8.84;42.30;99038.03;4906125;29;20176;-86
2022/05/25 06:53:56;;;;;;;0.70;0.70;;;;;;;8.66;43.47;99031.66;4927892;29;20516;-90
2022/05/25 06:56:24;;;;;;;0.70;0.70;;;;;;;8.98;43.20;99017.88;4932225;29;20060;-91
2022/05/25 06:58:52;;;;;;;0.60;0.60;;;;;;;9.32;42.59;99021.63;4932076;29;20055;-88
2022/05/25 07:01:21;;;;;;;0.60;0.60;;;;;;;9.39;42.58;99032.25;4916172;29;20047;-88
2022/05/25 07:03:48;;;;;;;0.70;0.70;;;;;;;9.70;42.08;99049.09;4933220;29;20806;-90
2022/05/25 07:06:20;;;;;;;0.70;0.70;;;;;;;10.05;41.16;99037.38;4930420;29;20048;-91
2022/05/25 07:08:47;;;;;;;0.70;0.70;;;;;;;10.39;40.62;99043.72;4919671;29;20429;-90
2022/05/25 07:11:15;;;;;;;0.70;0.70;;;;;;;10.44;40.08;99006.06;4951414;23;20623;-92
2022/05/25 07:13:42;;;;;;;0.70;0.70;;;;;;;10.71;39.44;99024.28;4920878;29;20054;-93
2022/05/25 07:16:13;;;;;;;0.70;0.70;;;;;;;10.82;39.05;99026.94;4940510;29;20533;-91
2022/05/25 07:18:45;;;;;;;0.70;0.70;;;;;;;11.04;38.87;99013.50;5020604;23;20096;-95
2022/05/25 07:21:41;;;;;;;0.70;0.70;;;;;;;11.45;37.69;99018.66;4927032;29;20027;-96
2022/05/25 07:24:32;;;;;;;0.50;0.50;;;;;;;11.05;38.46;99019.72;4906844;29;20135;-94
2022/05/25 07:28:07;;;;;;;0.80;0.80;;;;;;;11.38;36.91;99004.50;5205664;23;20595;-96
2022/05/25 07:30:41;;;;;;;0.80;0.80;;;;;;;11.84;37.28;99005.09;5306254;23;20062;-94
2022/05/25 07:33:10;;;;;;;0.70;0.70;;;;;;;12.34;36.25;98999.44;4947695;29;20089;-94
2022/05/25 07:36:10;;;;;;;0.70;0.70;;;;;;;12.62;35.58;99021.06;5089735;23;20069;-94
2022/05/25 07:38:44;;;;;;;0.60;0.60;;;;;;;12.72;35.62;98994.91;4989798;23;20052;-94
2022/05/25 07:41:17;;;;;;;0.50;0.50;;;;;;;12.51;35.44;99006.63;4878595;29;20045;-95
2022/05/25 07:43:58;;;;;;;0.50;0.50;;;;;;;12.03;35.86;98998.31;4855209;29;20117;-94
2022/05/25 07:46:49;;;;;;;0.80;0.80;;;;;;;12.30;35.90;98986.66;4846676;29;20218;-92
2022/05/25 07:49:17;;;;;;;0.70;0.70;;;;;;;12.62;34.59;99000.22;4861440;29;20060;-90
2022/05/25 07:51:44;;;;;;;0.80;0.80;;;;;;;12.94;34.14;99008.34;4853297;29;20520;-91
2022/05/25 07:54:11;;;;;;;0.80;0.80;;;;;;;12.61;33.12;99011.31;4870168;29;20068;-91
2022/05/25 07:56:39;;;;;;;0.70;0.70;;;;;;;12.29;34.09;99012.09;4871313;29;20152;-92
2022/05/25 07:59:09;;;;;;;0.50;0.50;;;;;;;12.60;33.69;99023.22;4848963;29;20509;-91
2022/05/25 08:07:18;;;;;;;0.70;0.70;;;;;;;11.28;35.35;99030.31;4868018;29;20543;-92
2022/05/25 08:09:47;;;;;;;0.70;0.70;;;;;;;11.39;35.46;99017.75;4840908;29;20057;-91
2022/05/25 08:12:15;;;;;;;0.60;0.60;;;;;;;11.45;35.61;99024.88;4866610;29;20151;-88
2022/05/25 08:14:43;;;;;;;0.60;0.60;;;;;;;11.14;36.18;99034.44;4879007;29;20560;-90
2022/05/25 08:17:11;;;;;;;0.60;0.60;;;;;;;10.98;36.20;99032.56;4873430;29;20129;-90
2022/05/25 08:19:38;;;;;;;0.90;0.90;;;;;;;11.65;35.69;99015.41;4886943;29;20056;-90
2022/05/25 08:22:06;;;;;;;0.90;0.90;;;;;;;12.58;34.96;99026.16;4879385;29;20064;-90
2022/05/25 08:24:34;;;;;;;0.60;0.60;;;;;;;12.88;34.42;99025.63;4894292;29;20052;-89
2022/05/25 08:27:05;;;;;;;0.50;0.50;;;;;;;12.64;34.20;99008.91;4909401;29;20571;-87
2022/05/25 08:29:33;;;;;;;0.50;0.50;;;;;;;12.27;34.38;99017.75;4896016;29;20615;-91
2022/05/25 08:32:01;;;;;;;0.50;0.50;;;;;;;12.17;34.83;99020.34;4880711;29;20055;-88
2022/05/25 08:34:28;;;;;;;0.90;0.90;;;;;;;12.71;33.78;99027.63;4884406;29;20067;-90
2022/05/25 08:36:58;;;;;;;0.90;0.90;;;;;;;13.57;32.56;99011.19;4893923;29;20052;-89
2022/05/25 08:39:26;;;;;;;0.90;0.90;;;;;;;14.68;31.00;99029.97;4884915;29;20076;-89
2022/05/25 08:41:56;;;;;;;0.90;0.90;;;;;;;15.29;29.24;99010.06;4879153;29;20053;-93
2022/05/25 08:44:25;;;;;;;0.50;0.50;;;;;;;14.43;30.14;99011.72;4858206;29;20144;-91
2022/05/25 08:46:55;;;;;;;0.50;0.50;;;;;;;13.36;31.20;99004.84;4859703;29;20055;-91
2022/05/25 08:49:24;;;;;;;0.40;0.40;;;;;;;12.69;32.60;99010.84;4860219;29;20073;-91
2022/05/25 08:51:55;;;;;;;0.70;0.70;;;;;;;12.53;33.16;99016.13;4866928;29;20057;-91
2022/05/25 08:54:48;;;;;;;0.90;0.90;;;;;;;14.57;31.69;99020.19;4868523;29;20053;-92
2022/05/25 08:57:31;;;;;;;0.90;0.90;;;;;;;14.84;29.47;98984.63;4865198;29;20101;-91
2022/05/25 09:00:03;;;;;;;0.70;0.70;;;;;;;15.79;28.63;99006.41;4891462;29;20080;-90
2022/05/25 09:02:33;;;;;;;0.85;0.85;;;;;;;16.25;27.99;99005.34;4883660;29;20059;-90
2022/05/25 09:05:28;;;;;;;0.80;0.80;;;;;;;15.72;28.42;99005.91;4871135;29;20422;-90
2022/05/25 09:08:05;;;;;;;0.90;0.90;;;;;;;15.66;28.78;99011.63;4829961;29;20049;-90
2022/05/25 09:10:38;;;;;;;0.40;0.40;;;;;;;14.95;30.19;98991.66;4877661;29;20084;-90
2022/05/25 09:13:11;;;;;;;0.40;0.40;;;;;;;13.35;31.05;99008.63;4879956;29;20060;-90
2022/05/25 09:18:36;;;;;;;0.40;0.40;;;;;;;12.69;32.91;99010.84;4879544;29;20061;-93
2022/05/25 09:21:05;;;;;;;0.90;0.90;;;;;;;13.63;31.43;99006.59;4856803;29;20053;-89
2022/05/25 09:23:32;;;;;;;1.00;1.00;;;;;;;14.92;29.09;99012.03;4878442;29;20091;-90
2022/05/25 09:25:59;;;;;;;0.80;0.80;;;;;;;15.99;27.72;98991.91;4846839;29;20053;-92
2022/05/25 09:28:37;;;;;;;1.00;1.00;;;;;;;17.36;25.88;98993.03;4863647;29;20489;-92
2022/05/25 09:31:05;;;;;;;0.50;0.50;;;;;;;16.80;26.58;98997.09;4862424;29;20059;-91
2022/05/25 09:33:46;;;;;;;0.40;0.40;;;;;;;14.93;28.82;99007.41;4863248;29;20063;-90
2022/05/25 09:36:21;;;;;;;0.50;0.50;;;;;;;14.00;30.43;99011.06;4834386;29;20470;-93
2022/05/25 09:39:03;;;;;;;0.50;0.50;;;;;;;14.16;30.27;98991.03;4861505;29;20064;-93
2022/05/25 09:41:31;;;;;;;0.57;0.57;;;;;;;15.13;29.44;99004.66;4913327;29;20060;-92
2022/05/25 09:44:02;;;;;;;0.90;0.90;;;;;;;16.32;27.90;98996.88;4910958;29;20044;-94
2022/05/25 09:46:39;;;;;;;0.90;0.90;;;;;;;15.78;27.37;98972.16;5047900;23;20092;-93
2022/05/25 09:49:12;;;;;;;1.00;1.00;;;;;;;16.12;27.15;98998.63;4923449;29;20074;-93
2022/05/25 09:51:53;;;;;;;0.93;0.93;;;;;;;16.76;26.58;98988.66;4912786;29;20117;-93
2022/05/25 09:54:46;;;;;;;1.00;1.00;;;;;;;17.44;26.15;99006.03;4927466;29;20138;-94
2022/05/25 09:57:30;;;;;;;0.70;0.70;;;;;;;17.47;26.04;98991.78;4941585;29;20158;-95
2022/05/25 10:00:00;;;;;;;0.93;0.93;;;;;;;18.90;25.49;98967.97;4923642;29;20060;-93
2022/05/25 10:02:51;;;;;;;0.40;0.40;;;;;;;17.21;26.12;98992.06;4910995;29;20096;-93
2022/05/25 10:19:51;;;;;;;0.90;0.90;;;;;;;17.57;25.52;98982.69;4862977;29;20062;-92
2022/05/25 10:22:43;;;;;;;0.90;0.90;;;;;;;18.16;24.83;98973.22;4836203;29;20705;-90
2022/05/25 10:25:29;;;;;;;0.90;0.90;;;;;;;18.83;23.73;98967.53;4863476;29;20417;-92
2022/05/25 10:27:57;;;;;;;0.90;0.90;;;;;;;19.44;23.43;98976.53;4869681;29;20061;-92
2022/05/25 10:36:49;;;;;;;0.90;0.90;;;;;;;21.80;21.81;98963.47;4864800;29;20049;-91
2022/05/25 10:39:19;;;;;;;0.88;0.88;;;;;;;21.58;21.86;98954.22;4856559;29;20071;-93
2022/05/25 10:42:18;;;;;;;0.90;0.90;;;;;;;21.82;21.38;98969.47;4845651;29;20063;-91
2022/05/25 10:44:49;;;;;;;0.80;0.80;;;;;;;20.68;21.84;98968.09;4859532;29;20634;-91
2022/05/25 10:48:07;;;;;;;0.90;0.90;;;;;;;20.44;22.17;98957.44;4839054;29;20070;-93
2022/05/25 10:50:42;;;;;;;0.90;0.90;;;;;;;20.33;21.97;98943.16;4772453;30;20065;-90
2022/05/25 10:53:36;;;;;;;0.90;0.90;;;;;;;21.10;21.58;98963.19;4786510;29;20055;-92
2022/05/25 10:56:27;;;;;;;0.80;0.80;;;;;;;21.86;20.84;98956.72;4797523;29;20352;-92
2022/05/25 10:59:10;;;;;;;0.80;0.80;;;;;;;21.50;20.71;98960.50;4816220;29;20062;-94
2022/05/25 11:01:44;;;;;;;0.70;0.70;;;;;;;21.57;20.76;98944.38;4871415;29;20129;-92
2022/05/25 11:04:23;;;;;;;0.30;0.30;;;;;;;20.88;21.85;98949.53;4881007;29;20053;-93
2022/05/25 11:07:14;;;;;;;0.60;0.60;;;;;;;20.28;23.49;98945.19;4868249;29;20057;-96
2022/05/25 11:10:16;;;;;;;0.30;0.30;;;;;;;20.17;22.58;98941.09;4867947;29;20057;-93
2022/05/25 11:13:14;;;;;;;0.30;0.30;;;;;;;18.29;24.69;98933.44;4809306;29;20055;-90
2022/05/25 11:15:58;;;;;;;0.30;0.30;;;;;;;17.14;25.89;98934.34;4793890;29;20055;-94
2022/05/25 11:18:39;;;;;;;0.90;0.90;;;;;;;19.41;24.11;98936.91;4824613;29;20092;-92
2022/05/25 11:21:31;;;;;;;0.90;0.90;;;;;;;21.18;22.57;98925.94;4817621;29;20577;-89
2022/05/25 11:24:23;;;;;;;0.40;0.40;;;;;;;22.43;21.09;98931.88;4810899;29;20063;-91
2022/05/25 11:27:14;;;;;;;0.30;0.30;;;;;;;20.01;22.42;98925.00;4773872;30;20583;-92
2022/05/25 11:29:56;;;;;;;0.30;0.30;;;;;;;18.55;24.64;98934.63;4756236;30;20052;-91
2022/05/25 11:32:35;;;;;;;0.40;0.40;;;;;;;17.84;25.01;98931.06;4765270;30;20108;-94
2022/05/25 11:35:17;;;;;;;0.40;0.40;;;;;;;17.63;25.41;98916.84;4765106;30;20072;-94
2022/05/25 11:37:59;;;;;;;0.80;0.80;;;;;;;19.09;24.58;98923.31;4778494;30;20147;-91
2022/05/25 11:40:50;;;;;;;0.60;0.60;;;;;;;21.60;21.47;98924.50;4753015;30;20455;-93
2022/05/25 11:43:36;;;;;;;0.90;0.90;;;;;;;21.62;20.25;98925.00;4765785;30;20133;-92
2022/05/25 11:46:16;;;;;;;0.32;0.32;;;;;;;20.37;21.78;98924.16;4778075;30;20052;-92
2022/05/25 11:49:43;;;;;;;0.60;0.60;;;;;;;18.84;23.42;98934.44;4792658;29;20064;-91
2022/05/25 11:52:23;;;;;;;0.30;0.30;;;;;;;18.21;23.96;98945.03;4862748;29;20048;-91
2022/05/25 11:55:14;;;;;;;0.30;0.30;;;;;;;16.68;25.78;98923.88;4861368;29;20057;-94
2022/05/25 11:58:07;;;;;;;0.90;0.90;;;;;;;18.32;24.67;98946.47;4852807;29;20474;-92
2022/05/25 12:01:16;;;;;;;0.90;0.90;;;;;;;20.27;22.47;98933.44;4888502;29;20055;-92
2022/05/25 12:04:16;;;;;;;0.90;0.90;;;;;;;22.44;21.13;98936.25;4885271;29;20064;-91
2022/05/25 12:07:32;;;;;;;0.80;0.80;;;;;;;24.39;19.13;98924.50;4852321;29;20053;-89
2022/05/25 12:10:07;;;;;;;0.30;0.30;;;;;;;21.45;20.46;98924.16;4878258;29;20048;-91
2022/05/25 12:12:47;;;;;;;0.30;0.30;;;;;;;18.33;23.39;98918.88;4894328;29;20452;-92
2022/05/25 12:15:30;;;;;;;0.70;0.70;;;;;;;18.54;23.61;98927.56;4875711;29;20066;-93
2022/05/25 12:18:22;;;;;;;0.40;0.40;;;;;;;18.97;23.24;98913.69;4845952;29;20064;-91
2022/05/25 12:20:54;;;;;;;0.40;0.40;;;;;;;18.35;23.97;98932.22;4874520;29;20081;-92
2022/05/25 12:23:28;;;;;;;0.70;0.70;;;;;;;17.96;24.04;98895.94;4831688;29;20056;-92
2022/05/25 12:26:27;;;;;;;0.60;0.60;;;;;;;19.81;22.58;98907.09;4852701;29;20048;-96
2022/05/25 12:29:22;;;;;;;0.40;0.40;;;;;;;19.49;22.55;98914.31;4862771;29;20161;-92
2022/05/25 12:31:55;;;;;;;0.70;0.70;;;;;;;19.02;23.24;98899.94;4847713;29;20049;-91
2022/05/25 12:34:42;;;;;;;0.60;0.60;;;;;;;20.39;22.28;98910.97;4869311;29;20077;-91
2022/05/25 12:37:12;;;;;;;0.50;0.50;;;;;;;20.49;22.11;98912.66;4881782;29;20053;-92
2022/05/25 12:39:42;;;;;;;0.70;0.70;;;;;;;20.33;22.77;98912.19;4864506;29;20057;-91
2022/05/25 12:42:24;;;;;;;0.60;0.60;;;;;;;21.33;21.57;98919.22;4904233;29;20078;-89
2022/05/25 12:51:43;;;;;;;0.50;0.50;;;;;;;18.37;23.76;98924.56;4893196;29;20045;-93
2022/05/25 12:54:22;;;;;;;0.60;0.60;;;;;;;18.22;24.50;98909.22;4888924;29;20057;-96
2022/05/25 12:56:51;;;;;;;0.60;0.60;;;;;;;18.66;23.63;98915.31;4871787;29;20052;-93
2022/05/25 12:59:37;;;;;;;0.50;0.50;;;;;;;18.37;24.04;98927.28;4870693;29;20074;-93
2022/05/25 13:08:46;;;;;;;0.40;0.40;;;;;;;16.67;25.98;98908.63;4943734;23;20269;-95
2022/05/25 13:11:32;;;;;;;0.40;0.40;;;;;;;15.87;27.18;98915.22;4905753;29;20052;-96
2022/05/25 13:14:06;;;;;;;0.40;0.40;;;;;;;15.79;27.58;98894.84;4881812;29;20425;-93
2022/05/25 13:16:45;;;;;;;0.30;0.30;;;;;;;15.82;27.36;98907.09;4868570;29;20077;-93
2022/05/25 13:19:17;;;;;;;0.57;0.57;;;;;;;15.81;27.65;98916.34;4896213;29;20060;-92
2022/05/25 13:22:13;;;;;;;1.00;1.00;;;;;;;18.34;24.47;98909.56;4887365;29;20413;-93
2022/05/25 13:25:01;;;;;;;0.90;0.90;;;;;;;20.91;22.04;98911.28;4908791;29;20048;-92
2022/05/25 13:27:45;;;;;;;0.90;0.90;;;;;;;22.70;20.06;98902.38;4908107;29;20060;-93
2022/05/25 13:30:38;;;;;;;0.30;0.30;;;;;;;21.41;21.11;98896.50;4868496;29;20056;-96
2022/05/25 13:33:24;;;;;;;0.30;0.30;;;;;;;19.21;22.84;98899.03;5039343;23;20047;-94
2022/05/25 13:36:33;;;;;;;0.40;0.40;;;;;;;17.93;24.11;98901.19;4934977;29;20055;-94
2022/05/25 13:39:28;;;;;;;0.40;0.40;;;;;;;17.74;24.73;98901.16;4903036;29;20111;-93
2022/05/25 13:42:13;;;;;;;0.30;0.30;;;;;;;16.99;25.57;98897.16;4900347;29;20058;-94
2022/05/25 13:44:49;;;;;;;0.40;0.40;;;;;;;16.59;26.19;98901.88;4891893;29;20048;-91
2022/05/25 13:47:21;;;;;;;0.40;0.40;;;;;;;16.51;26.37;98878.00;4875414;29;20047;-92
2022/05/25 13:50:17;;;;;;;0.40;0.40;;;;;;;16.22;27.31;98872.50;4886535;29;20055;-94
2022/05/25 13:58:01;;;;;;;0.40;0.40;;;;;;;15.91;27.68;98902.69;5228855;23;20323;-96
2022/05/25 14:01:15;;;;;;;0.40;0.40;;;;;;;15.49;28.47;98895.00;4981000;23;20064;-91
2022/05/25 14:03:49;;;;;;;0.40;0.40;;;;;;;15.45;28.42;98867.56;4894126;29;20056;-94
2022/05/25 14:55:22;;;;;;;0.30;0.30;;;;;;;14.10;31.45;98883.56;5191942;23;20236;-95
2022/05/25 15:07:39;;;;;;;0.40;0.40;;;;;;;13.35;32.83;98854.13;5455765;23;20031;-93